Time;durP1;ratioP1;P1;durP2;ratioP2;P2;SDS_P1;SDS_P2;PMS_P1;PMS_P2;Temp;Humidity;BMP_temperature;BMP_pressure;BME280_temperature;BME280_humidity;BME280_pressure;Samples;Min_cycle;Max_cycle;Signal;HPM_P1;HPM_P2
2021/11/29 00:00:48;;;;;;;50.40;25.50;;;;;;;0.56;100.00;96791.00;102337;1310;62756;-76
2021/11/29 00:03:19;;;;;;;61.60;30.60;;;;;;;0.58;100.00;96798.02;102293;1317;77039;-76
2021/11/29 00:05:46;;;;;;;44.50;24.00;;;;;;;0.58;100.00;96797.47;102344;1311;70564;-76
2021/11/29 00:08:13;;;;;;;48.30;25.40;;;;;;;0.58;100.00;96802.76;102328;1310;73531;-76
2021/11/29 00:10:40;;;;;;;47.20;24.70;;;;;;;0.55;100.00;96807.49;102333;1310;62133;-76
2021/11/29 00:13:07;;;;;;;50.10;25.80;;;;;;;0.53;100.00;96809.87;102354;1310;62078;-76
2021/11/29 00:15:34;;;;;;;34.20;18.00;;;;;;;0.54;100.00;96817.16;102375;1310;76203;-76
2021/11/29 00:18:02;;;;;;;43.40;22.50;;;;;;;0.53;100.00;96826.31;102299;1310;70211;-76
2021/11/29 00:20:30;;;;;;;55.60;26.50;;;;;;;0.52;100.00;96835.43;102353;1310;73262;-75
2021/11/29 00:22:58;;;;;;;54.30;27.30;;;;;;;0.54;100.00;96830.02;102413;1310;62230;-75
2021/11/29 00:25:25;;;;;;;56.10;24.80;;;;;;;0.56;100.00;96827.13;102422;1313;62211;-77
2021/11/29 00:27:53;;;;;;;56.30;30.20;;;;;;;0.55;100.00;96819.14;102482;1310;77232;-75
2021/11/29 00:30:20;;;;;;;50.00;25.80;;;;;;;0.54;100.00;96824.99;102357;1310;69471;-75
2021/11/29 00:32:47;;;;;;;50.60;27.50;;;;;;;0.54;100.00;96838.94;101307;1310;1003119;-76
2021/11/29 00:35:14;;;;;;;53.50;28.30;;;;;;;0.56;100.00;96837.25;102124;1317;62256;-75
2021/11/29 00:37:41;;;;;;;52.20;25.90;;;;;;;0.58;100.00;96838.39;102536;1310;62144;-76
2021/11/29 00:40:09;;;;;;;49.50;25.10;;;;;;;0.58;100.00;96833.65;102670;1317;75714;-75
2021/11/29 00:42:37;;;;;;;49.50;26.30;;;;;;;0.57;100.00;96828.63;103474;1310;69968;-74
2021/11/29 00:45:07;;;;;;;54.50;27.30;;;;;;;0.56;100.00;96829.41;103653;1310;74461;-76
2021/11/29 00:47:34;;;;;;;57.60;27.20;;;;;;;0.57;100.00;96832.16;103759;1313;61984;-75
2021/11/29 00:50:02;;;;;;;48.50;24.70;;;;;;;0.58;100.00;96831.58;102569;1310;62135;-75
2021/11/29 00:52:29;;;;;;;53.10;27.60;;;;;;;0.57;100.00;96836.86;102834;1310;78210;-76
2021/11/29 00:54:55;;;;;;;51.10;26.90;;;;;;;0.57;100.00;96846.15;102564;1313;70321;-75
2021/11/29 00:57:22;;;;;;;54.10;26.20;;;;;;;0.56;100.00;96848.47;102674;1311;73147;-76
2021/11/29 00:59:49;;;;;;;50.80;26.20;;;;;;;0.55;100.00;96843.81;102814;1316;62071;-76
2021/11/29 01:02:16;;;;;;;49.60;26.00;;;;;;;0.54;100.00;96847.54;103014;1310;62089;-77
2021/11/29 01:04:43;;;;;;;49.40;24.10;;;;;;;0.56;100.00;96850.92;103243;1311;76356;-75
2021/11/29 01:07:10;;;;;;;46.00;24.00;;;;;;;0.56;100.00;96851.29;103473;1311;70940;-75
2021/11/29 01:09:37;;;;;;;40.30;21.80;;;;;;;0.52;100.00;96849.39;103562;1310;74491;-76
2021/11/29 01:12:04;;;;;;;45.40;25.30;;;;;;;0.50;100.00;96846.92;104680;1313;62100;-76
2021/11/29 01:14:31;;;;;;;41.40;23.20;;;;;;;0.51;100.00;96854.34;105047;1310;62219;-77
2021/11/29 01:16:57;;;;;;;38.90;22.40;;;;;;;0.52;100.00;96852.01;105419;1310;76135;-77
2021/11/29 01:19:24;;;;;;;38.90;23.70;;;;;;;0.55;100.00;96850.09;105339;1314;69503;-76
2021/11/29 01:21:51;;;;;;;43.60;25.60;;;;;;;0.56;100.00;96853.89;103436;1317;71456;-76
2021/11/29 01:24:18;;;;;;;35.60;21.40;;;;;;;0.57;100.00;96857.64;102508;1310;62121;-76
2021/11/29 01:26:45;;;;;;;39.10;21.80;;;;;;;0.58;100.00;96857.61;102470;1316;62060;-77
2021/11/29 01:29:11;;;;;;;38.20;21.20;;;;;;;0.56;100.00;96862.58;102488;1310;76286;-76
2021/11/29 01:31:38;;;;;;;34.80;20.70;;;;;;;0.56;100.00;96859.31;102501;1313;69309;-78
2021/11/29 01:34:04;;;;;;;33.40;19.90;;;;;;;0.55;100.00;96851.50;102322;1317;73469;-77
2021/11/29 01:36:31;;;;;;;37.70;21.70;;;;;;;0.54;100.00;96853.09;102120;1314;62677;-77
2021/11/29 01:38:58;;;;;;;36.10;21.10;;;;;;;0.54;100.00;96852.96;102324;1310;62626;-75
2021/11/29 01:41:24;;;;;;;35.90;23.50;;;;;;;0.53;100.00;96844.98;102340;1312;75821;-75
2021/11/29 01:43:51;;;;;;;30.00;18.00;;;;;;;0.54;100.00;96845.63;102317;1311;70291;-76
2021/11/29 01:46:18;;;;;;;35.80;20.60;;;;;;;0.55;100.00;96848.02;102356;1314;73460;-75
2021/11/29 01:48:44;;;;;;;31.50;19.70;;;;;;;0.54;100.00;96845.96;102342;1310;62166;-76
2021/11/29 01:51:11;;;;;;;27.80;18.10;;;;;;;0.55;100.00;96846.95;102408;1310;62228;-76
2021/11/29 01:53:38;;;;;;;34.30;21.80;;;;;;;0.55;100.00;96850.78;102311;1311;77266;-76
2021/11/29 01:56:05;;;;;;;33.60;20.70;;;;;;;0.55;100.00;96847.46;102354;1311;70531;-76
2021/11/29 01:58:35;;;;;;;31.60;21.00;;;;;;;0.52;100.00;96849.75;102343;1310;73557;-76
2021/11/29 02:01:08;;;;;;;33.80;21.30;;;;;;;0.50;100.00;96854.78;102377;1317;62185;-76
2021/11/29 02:03:35;;;;;;;31.90;20.20;;;;;;;0.50;100.00;96852.88;101875;1310;62251;-76
2021/11/29 02:06:01;;;;;;;30.60;19.50;;;;;;;0.51;100.00;96848.60;102134;1313;76334;-75
2021/11/29 02:08:30;;;;;;;25.60;17.10;;;;;;;0.53;100.00;96846.92;101902;1317;68106;-76
2021/11/29 02:10:57;;;;;;;25.70;17.40;;;;;;;0.52;100.00;96848.86;101947;1313;74372;-76
2021/11/29 02:13:24;;;;;;;27.70;18.10;;;;;;;0.52;100.00;96844.86;102339;1316;62132;-77
2021/11/29 02:15:51;;;;;;;29.90;18.20;;;;;;;0.52;100.00;96841.39;102302;1318;62199;-75
2021/11/29 02:18:22;;;;;;;32.40;18.00;;;;;;;0.52;100.00;96842.92;102362;1310;77282;-75
2021/11/29 02:21:13;;;;;;;29.00;18.40;;;;;;;0.53;100.00;96848.65;102437;1316;70513;-76
2021/11/29 02:23:47;;;;;;;28.10;18.50;;;;;;;0.55;100.00;96847.80;101370;1318;73266;-76
2021/11/29 02:26:21;;;;;;;26.70;17.30;;;;;;;0.55;100.00;96852.55;101583;1320;62159;-76
2021/11/29 02:28:56;;;;;;;28.40;18.70;;;;;;;0.55;100.00;96849.23;101755;1325;62376;-76
2021/11/29 02:31:27;;;;;;;30.10;18.60;;;;;;;0.56;100.00;96855.08;101579;1319;76297;-77
2021/11/29 02:33:54;;;;;;;29.10;18.70;;;;;;;0.58;100.00;96856.72;101659;1319;68815;-76
2021/11/29 02:36:21;;;;;;;26.90;18.30;;;;;;;0.59;100.00;96861.17;101572;1320;73681;-76
2021/11/29 02:38:48;;;;;;;24.00;15.10;;;;;;;0.61;100.00;96861.07;100830;1319;1003572;-76
2021/11/29 02:41:14;;;;;;;23.40;17.10;;;;;;;0.61;100.00;96863.73;101292;1321;62419;-76
2021/11/29 02:43:42;;;;;;;23.40;15.80;;;;;;;0.58;100.00;96864.21;101530;1318;76942;-76
2021/11/29 02:46:08;;;;;;;25.60;16.60;;;;;;;0.57;100.00;96867.23;101558;1323;70550;-76
2021/11/29 02:48:43;;;;;;;25.60;16.70;;;;;;;0.57;100.00;96864.14;101519;1322;73335;-76
2021/11/29 02:51:39;;;;;;;23.20;16.40;;;;;;;0.58;100.00;96861.09;101555;1318;62341;-76
2021/11/29 02:54:12;;;;;;;21.30;14.20;;;;;;;0.59;100.00;96865.24;100768;1331;62072;-77
2021/11/29 02:56:42;;;;;;;21.70;14.40;;;;;;;0.59;100.00;96867.52;100633;1327;75601;-76
2021/11/29 02:59:11;;;;;;;;;;;;;;;0.59;100.00;96868.04;100708;1327;69288;-77
2021/11/29 03:01:39;;;;;;;23.30;16.50;;;;;;;0.58;100.00;96872.30;101418;1319;73836;-76
2021/11/29 03:04:06;;;;;;;23.00;14.60;;;;;;;0.57;100.00;96876.38;101694;1319;62270;-75
2021/11/29 03:06:33;;;;;;;23.30;17.30;;;;;;;0.58;100.00;96873.70;101697;1319;62569;-76
2021/11/29 03:09:01;;;;;;;28.10;19.60;;;;;;;0.57;100.00;96873.90;101824;1319;76815;-76
2021/11/29 03:11:28;;;;;;;24.80;17.30;;;;;;;0.56;100.00;96877.48;101719;1319;70835;-77
2021/11/29 03:13:55;;;;;;;26.70;19.80;;;;;;;0.57;100.00;96874.11;101679;1319;74048;-76
2021/11/29 03:16:22;;;;;;;28.70;19.60;;;;;;;0.56;100.00;96879.56;101274;1321;62277;-76
2021/11/29 03:18:49;;;;;;;25.60;18.10;;;;;;;0.55;100.00;96880.13;101692;1319;62215;-77
2021/11/29 03:21:18;;;;;;;25.00;17.20;;;;;;;0.57;100.00;96887.55;101687;1319;77218;-76
2021/11/29 03:23:47;;;;;;;22.30;16.30;;;;;;;0.58;100.00;96886.95;101762;1320;70592;-76
2021/11/29 03:26:18;;;;;;;24.70;16.70;;;;;;;0.57;100.00;96892.61;101821;1319;74539;-76
2021/11/29 03:28:53;;;;;;;21.30;15.90;;;;;;;0.55;100.00;96889.08;101914;1322;62143;-76
2021/11/29 03:31:20;;;;;;;21.40;15.20;;;;;;;0.52;100.00;96885.90;101968;1314;62239;-76
2021/11/29 03:33:47;;;;;;;22.30;14.20;;;;;;;0.53;100.00;96879.77;102384;1316;76511;-75
2021/11/29 03:36:14;;;;;;;21.70;16.10;;;;;;;0.52;100.00;96880.69;102336;1311;70912;-76
2021/11/29 03:38:40;;;;;;;23.20;16.00;;;;;;;0.51;100.00;96878.30;102335;1311;74678;-76
2021/11/29 03:41:09;;;;;;;19.30;15.40;;;;;;;0.52;100.00;96880.33;102361;1311;62120;-76
2021/11/29 03:43:36;;;;;;;20.30;14.60;;;;;;;0.51;100.00;96879.71;102330;1316;62096;-77
2021/11/29 03:46:02;;;;;;;21.10;14.70;;;;;;;0.50;100.00;96876.98;101982;1318;76360;-76
2021/11/29 03:48:29;;;;;;;21.00;14.40;;;;;;;0.49;100.00;96875.42;102363;1317;68968;-76
2021/11/29 03:50:55;;;;;;;20.30;15.40;;;;;;;0.48;100.00;96875.16;102337;1317;73260;-75
2021/11/29 03:53:22;;;;;;;20.30;15.50;;;;;;;0.48;100.00;96871.85;101949;1316;62106;-76
2021/11/29 03:55:49;;;;;;;19.90;15.40;;;;;;;0.47;100.00;96874.86;102344;1317;62199;-76
2021/11/29 03:58:16;;;;;;;18.90;14.50;;;;;;;0.47;100.00;96874.73;102337;1317;75327;-76
2021/11/29 04:00:43;;;;;;;19.60;15.00;;;;;;;0.47;100.00;96877.66;102359;1317;70272;-76
2021/11/29 04:03:09;;;;;;;19.10;15.70;;;;;;;0.48;100.00;96877.41;102299;1317;73892;-75
2021/11/29 04:05:36;;;;;;;20.30;16.30;;;;;;;0.50;100.00;96878.91;102164;1317;62190;-76
2021/11/29 04:08:04;;;;;;;18.30;14.80;;;;;;;0.51;100.00;96874.66;102360;1317;62054;-75
2021/11/29 04:10:30;;;;;;;18.20;14.10;;;;;;;0.51;100.00;96881.94;101954;1320;78040;-75
2021/11/29 04:12:57;;;;;;;17.40;14.30;;;;;;;0.51;100.00;96880.93;102363;1317;69546;-76
2021/11/29 04:15:23;;;;;;;15.80;12.90;;;;;;;0.52;100.00;96881.41;102377;1317;71832;-77
2021/11/29 04:17:50;;;;;;;20.40;16.00;;;;;;;0.52;100.00;96887.17;101936;1316;62194;-76
2021/11/29 04:20:17;;;;;;;19.90;14.70;;;;;;;0.51;100.00;96888.25;102400;1316;62118;-76
2021/11/29 04:22:45;;;;;;;18.00;14.70;;;;;;;0.51;100.00;96886.55;102339;1314;76591;-76
2021/11/29 04:25:18;;;;;;;19.00;14.70;;;;;;;0.50;100.00;96884.66;102380;1317;69540;-76
2021/11/29 04:27:47;;;;;;;16.40;13.90;;;;;;;0.50;100.00;96893.92;102150;1320;74625;-76
2021/11/29 04:30:18;;;;;;;20.70;14.40;;;;;;;0.51;100.00;96905.57;102309;1317;62303;-76
2021/11/29 04:32:47;;;;;;;21.10;14.90;;;;;;;0.51;100.00;96908.15;102260;1310;61897;-76
2021/11/29 04:35:15;;;;;;;19.30;14.80;;;;;;;0.52;100.00;96902.86;102359;1316;76193;-76
2021/11/29 04:37:41;;;;;;;19.80;14.40;;;;;;;0.52;100.00;96898.69;101908;1314;69492;-76
2021/11/29 04:40:09;;;;;;;19.10;14.30;;;;;;;0.50;100.00;96893.53;102226;1316;250890;-76
2021/11/29 04:42:36;;;;;;;18.70;14.50;;;;;;;0.51;100.00;96892.48;102402;1314;62184;-77
2021/11/29 04:45:05;;;;;;;20.10;15.00;;;;;;;0.50;100.00;96892.70;101874;1316;62444;-77
2021/11/29 04:47:32;;;;;;;21.00;16.00;;;;;;;0.49;100.00;96900.80;102373;1311;76290;-76
2021/11/29 04:49:59;;;;;;;17.80;13.70;;;;;;;0.47;100.00;96906.64;102385;1317;69847;-76
2021/11/29 04:52:25;;;;;;;23.70;16.50;;;;;;;0.46;100.00;96906.05;102022;1310;73962;-75
2021/11/29 04:54:52;;;;;;;21.30;15.50;;;;;;;0.46;100.00;96898.36;102305;1317;62208;-76
2021/11/29 04:57:19;;;;;;;22.10;15.90;;;;;;;0.47;100.00;96899.83;102384;1317;62251;-76
2021/11/29 04:59:45;;;;;;;21.60;16.00;;;;;;;0.47;100.00;96905.43;102388;1317;75959;-78
2021/11/29 05:02:12;;;;;;;21.60;15.20;;;;;;;0.46;100.00;96910.04;102407;1316;69930;-75
2021/11/29 05:04:45;;;;;;;24.20;17.10;;;;;;;0.44;100.00;96914.48;102307;1311;74544;-76
2021/11/29 05:07:15;;;;;;;23.00;16.30;;;;;;;0.44;100.00;96908.93;102034;1317;62110;-76
2021/11/29 05:09:44;;;;;;;22.70;15.30;;;;;;;0.43;100.00;96912.11;102463;1314;62163;-76
2021/11/29 05:12:14;;;;;;;26.20;18.20;;;;;;;0.44;100.00;96913.48;102382;1316;77429;-75
2021/11/29 05:14:46;;;;;;;28.40;17.70;;;;;;;0.43;100.00;96912.13;102327;1314;68930;-76
2021/11/29 05:17:17;;;;;;;28.00;17.20;;;;;;;0.42;100.00;96911.64;102340;1311;74675;-76
2021/11/29 05:19:44;;;;;;;35.30;19.70;;;;;;;0.41;100.00;96909.13;102302;1316;62154;-76
2021/11/29 05:22:11;;;;;;;27.90;18.00;;;;;;;0.39;100.00;96913.06;102371;1316;62361;-76
2021/11/29 05:24:39;;;;;;;30.10;18.30;;;;;;;0.37;100.00;96914.58;102312;1310;74856;-76
2021/11/29 05:27:06;;;;;;;31.90;18.80;;;;;;;0.36;100.00;96921.61;102290;1317;68936;-74
2021/11/29 05:29:33;;;;;;;31.90;18.30;;;;;;;0.36;100.00;96925.13;102250;1313;74431;-75
2021/11/29 05:32:00;;;;;;;28.10;18.50;;;;;;;0.36;100.00;96931.38;102366;1317;62133;-76
2021/11/29 05:34:26;;;;;;;31.10;18.60;;;;;;;0.36;100.00;96932.30;102343;1317;62261;-77
2021/11/29 05:36:53;;;;;;;26.80;17.40;;;;;;;0.35;100.00;96938.27;102284;1311;77278;-76
2021/11/29 05:39:19;;;;;;;30.90;19.20;;;;;;;0.34;100.00;96940.59;102222;1317;70485;-75
2021/11/29 05:41:47;;;;;;;29.30;18.50;;;;;;;0.33;100.00;96941.52;102347;1310;73493;-76
2021/11/29 05:44:16;;;;;;;24.00;15.60;;;;;;;0.32;100.00;96938.81;102355;1317;62175;-75
2021/11/29 05:46:43;;;;;;;27.90;17.40;;;;;;;0.30;100.00;96936.30;102307;1316;62063;-76
2021/11/29 05:49:11;;;;;;;24.60;16.40;;;;;;;0.31;100.00;96935.91;101951;1318;76457;-77
2021/11/29 05:51:37;;;;;;;28.50;17.80;;;;;;;0.33;100.00;96936.68;102419;1317;68938;-76
2021/11/29 05:54:04;;;;;;;27.70;17.20;;;;;;;0.33;100.00;96939.45;102475;1313;74518;-77
2021/11/29 05:56:31;;;;;;;29.50;18.20;;;;;;;0.34;100.00;96941.82;102627;1313;62101;-76
2021/11/29 05:58:57;;;;;;;29.20;17.40;;;;;;;0.35;100.00;96944.61;103069;1316;61027;-75
2021/11/29 06:01:24;;;;;;;32.50;20.10;;;;;;;0.36;100.00;96949.06;103647;1317;76370;-76
2021/11/29 06:03:51;;;;;;;29.00;18.20;;;;;;;0.36;100.00;96957.60;103357;1310;70552;-75
2021/11/29 06:06:19;;;;;;;30.50;19.20;;;;;;;0.36;100.00;96962.86;102464;1313;73994;-75
2021/11/29 06:08:46;;;;;;;31.50;20.20;;;;;;;0.37;100.00;96973.10;102491;1317;62142;-76
2021/11/29 06:11:13;;;;;;;30.50;18.20;;;;;;;0.39;100.00;96976.82;102304;1313;62251;-76
2021/11/29 06:13:39;;;;;;;29.60;16.50;;;;;;;0.40;100.00;96985.00;102472;1316;75280;-77
2021/11/29 06:16:06;;;;;;;32.30;19.10;;;;;;;0.38;100.00;96980.18;102346;1317;69930;-77
2021/11/29 06:18:33;;;;;;;27.20;17.40;;;;;;;0.41;100.00;96985.09;102304;1311;74518;-79
2021/11/29 06:20:59;;;;;;;24.60;16.20;;;;;;;0.42;100.00;96988.69;102392;1315;62248;-77
2021/11/29 06:23:26;;;;;;;30.50;18.20;;;;;;;0.43;100.00;96985.86;101848;1316;62104;-75
2021/11/29 06:25:53;;;;;;;29.10;18.90;;;;;;;0.44;100.00;96993.11;101985;1313;75688;-77
2021/11/29 06:28:20;;;;;;;29.00;19.90;;;;;;;0.47;100.00;97001.04;102353;1316;68987;-76
2021/11/29 06:30:46;;;;;;;25.10;17.80;;;;;;;0.47;100.00;97005.75;102400;1311;73085;-77
2021/11/29 06:33:13;;;;;;;26.30;17.30;;;;;;;0.44;100.00;97004.83;102471;1311;62108;-77
2021/11/29 06:35:39;;;;;;;30.00;19.50;;;;;;;0.42;100.00;97008.09;102494;1317;62051;-76
2021/11/29 06:38:06;;;;;;;29.60;18.90;;;;;;;0.41;100.00;97008.65;102361;1311;77218;-76
2021/11/29 06:40:34;;;;;;;32.80;20.90;;;;;;;0.42;100.00;97013.31;102458;1310;70725;-76
2021/11/29 06:43:02;;;;;;;29.90;20.50;;;;;;;0.41;100.00;97016.73;102087;1314;74557;-75
2021/11/29 06:45:29;;;;;;;30.80;21.30;;;;;;;0.41;100.00;97025.77;102502;1314;62140;-75
2021/11/29 06:47:56;;;;;;;36.00;21.40;;;;;;;0.40;100.00;97028.48;102550;1310;62225;-76
2021/11/29 06:50:23;;;;;;;32.40;20.20;;;;;;;0.39;100.00;97034.63;102561;1310;76167;-76
2021/11/29 06:52:50;;;;;;;32.90;22.00;;;;;;;0.39;100.00;97039.86;102592;1310;69611;-77
2021/11/29 06:55:20;;;;;;;30.60;21.60;;;;;;;0.42;100.00;97046.36;102711;1316;73202;-76
2021/11/29 06:57:48;;;;;;;32.00;21.60;;;;;;;0.43;100.00;97045.57;102398;1318;62152;-76
2021/11/29 07:00:20;;;;;;;30.40;20.40;;;;;;;0.43;100.00;97046.63;102848;1313;62031;-75
2021/11/29 07:02:48;;;;;;;31.30;21.30;;;;;;;0.42;100.00;97047.06;102559;1313;76104;-76
2021/11/29 07:05:15;;;;;;;29.50;20.20;;;;;;;0.41;100.00;97052.17;103114;1310;68645;-76
2021/11/29 07:07:44;;;;;;;26.90;17.80;;;;;;;0.42;100.00;97051.92;103180;1318;74520;-75
2021/11/29 07:10:12;;;;;;;31.10;21.90;;;;;;;0.43;100.00;97053.83;103371;1316;62019;-76
2021/11/29 07:12:41;;;;;;;31.00;21.60;;;;;;;0.43;100.00;97051.55;105094;1318;62413;-76
2021/11/29 07:15:09;;;;;;;29.20;19.80;;;;;;;0.43;100.00;97049.96;105600;1317;76380;-77
2021/11/29 07:17:35;;;;;;;27.30;17.90;;;;;;;0.46;100.00;97048.02;104906;1318;69599;-76
2021/11/29 07:20:07;;;;;;;26.30;17.70;;;;;;;0.46;100.00;97047.17;105568;1316;73617;-75
2021/11/29 07:22:36;;;;;;;28.00;17.70;;;;;;;0.47;100.00;97050.44;103096;1313;62151;-76
2021/11/29 07:25:04;;;;;;;24.50;17.60;;;;;;;0.49;100.00;97052.39;102518;1310;62069;-76
2021/11/29 07:27:33;;;;;;;24.10;16.10;;;;;;;0.49;100.00;97049.78;102516;1311;75762;-75
2021/11/29 07:30:03;;;;;;;23.80;17.50;;;;;;;0.47;100.00;97042.73;102521;1310;69983;-75
2021/11/29 07:32:30;;;;;;;26.00;18.40;;;;;;;0.49;100.00;97043.70;102446;1311;74805;-78
2021/11/29 07:34:57;;;;;;;23.10;15.50;;;;;;;0.50;100.00;97040.86;102113;1310;62191;-77
2021/11/29 07:37:24;;;;;;;23.10;15.40;;;;;;;0.51;100.00;97041.67;102397;1313;62121;-76
2021/11/29 07:39:52;;;;;;;20.80;15.80;;;;;;;0.51;100.00;97039.53;102428;1310;75931;-77
2021/11/29 07:42:19;;;;;;;22.70;16.70;;;;;;;0.51;100.00;97043.20;102470;1310;70433;-77
2021/11/29 07:44:46;;;;;;;26.40;18.10;;;;;;;0.51;100.00;97041.98;102367;1316;74513;-77
2021/11/29 07:47:14;;;;;;;26.70;17.50;;;;;;;0.53;100.00;97043.46;102478;1310;62228;-76
2021/11/29 07:49:40;;;;;;;31.30;20.40;;;;;;;0.54;100.00;97041.46;102408;1310;62063;-76
2021/11/29 07:52:08;;;;;;;26.10;17.30;;;;;;;0.54;100.00;97044.06;102305;1310;76339;-75
2021/11/29 07:54:36;;;;;;;26.40;17.70;;;;;;;0.55;100.00;97047.20;102339;1310;70493;-73
2021/11/29 07:57:02;;;;;;;27.40;18.20;;;;;;;0.56;100.00;97041.91;102315;1310;74580;-72
2021/11/29 07:59:29;;;;;;;25.20;18.40;;;;;;;0.54;100.00;97044.59;102285;1310;62145;-73
2021/11/29 08:01:58;;;;;;;26.60;17.90;;;;;;;0.55;100.00;97048.77;102327;1310;62048;-73
2021/11/29 08:04:25;;;;;;;30.00;19.80;;;;;;;0.54;100.00;97048.45;102308;1310;76361;-73
2021/11/29 08:06:52;;;;;;;30.40;20.20;;;;;;;0.54;100.00;97050.17;102372;1311;71004;-74
2021/11/29 08:09:19;;;;;;;22.90;16.90;;;;;;;0.55;100.00;97055.19;102396;1310;73199;-73
2021/11/29 08:11:46;;;;;;;23.50;17.30;;;;;;;0.55;100.00;97052.61;102371;1311;62144;-73
2021/11/29 08:14:12;;;;;;;23.20;16.20;;;;;;;0.55;100.00;97051.55;101960;1313;62201;-73
2021/11/29 08:16:39;;;;;;;20.60;16.20;;;;;;;0.54;100.00;97060.86;101611;1310;1003929;-73
2021/11/29 08:19:06;;;;;;;23.70;17.20;;;;;;;0.53;100.00;97059.15;102322;1311;62112;-73
2021/11/29 08:21:32;;;;;;;27.60;18.10;;;;;;;0.53;100.00;97064.94;102360;1310;62206;-73
2021/11/29 08:23:59;;;;;;;25.30;17.30;;;;;;;0.53;100.00;97062.64;102336;1314;62119;-72
2021/11/29 08:26:29;;;;;;;22.70;16.80;;;;;;;0.54;100.00;97063.84;102375;1310;62027;-73
2021/11/29 08:28:56;;;;;;;21.50;16.90;;;;;;;0.53;100.00;97067.73;102237;1313;77287;-73
2021/11/29 08:31:22;;;;;;;26.80;18.20;;;;;;;0.52;100.00;97070.08;102364;1310;68855;-71
2021/11/29 08:33:49;;;;;;;28.80;20.50;;;;;;;0.51;100.00;97070.83;102362;1313;72658;-71
2021/11/29 08:36:16;;;;;;;28.60;20.40;;;;;;;0.52;100.00;97075.52;102358;1310;62232;-72
2021/11/29 08:38:43;;;;;;;27.30;17.30;;;;;;;0.54;100.00;97077.09;102335;1311;62054;-72
2021/11/29 08:41:09;;;;;;;26.00;17.80;;;;;;;0.56;100.00;97080.66;102101;1314;77217;-71
2021/11/29 08:43:38;;;;;;;22.90;17.80;;;;;;;0.58;100.00;97078.30;102336;1313;69232;-72
2021/11/29 08:46:05;;;;;;;26.30;18.50;;;;;;;0.58;100.00;97082.13;102290;1314;74517;-72
2021/11/29 08:48:35;;;;;;;22.50;16.80;;;;;;;0.60;100.00;97082.20;101837;1310;62852;-71
2021/11/29 08:51:01;;;;;;;24.20;17.50;;;;;;;0.62;100.00;97085.23;101922;1318;62024;-72
2021/11/29 08:53:28;;;;;;;28.50;18.80;;;;;;;0.63;100.00;97082.51;102350;1310;77237;-72
2021/11/29 08:55:56;;;;;;;22.60;17.50;;;;;;;0.63;100.00;97089.35;102378;1314;68553;-70
2021/11/29 08:58:23;;;;;;;22.40;17.10;;;;;;;0.64;100.00;97088.59;102355;1314;74450;-72
2021/11/29 09:00:52;;;;;;;22.30;16.10;;;;;;;0.65;100.00;97091.49;102321;1311;62289;-72
2021/11/29 09:03:20;;;;;;;23.40;17.70;;;;;;;0.67;100.00;97093.85;102327;1310;62043;-72
2021/11/29 09:05:48;;;;;;;21.20;15.60;;;;;;;0.67;100.00;97094.05;101942;1313;76277;-72
2021/11/29 09:08:15;;;;;;;20.10;15.10;;;;;;;0.65;100.00;97092.39;102001;1317;70275;-73
2021/11/29 09:10:45;;;;;;;22.00;16.20;;;;;;;0.65;100.00;97092.21;102350;1311;74412;-73
2021/11/29 09:13:12;;;;;;;20.00;15.50;;;;;;;0.67;100.00;97087.05;102458;1311;62130;-73
2021/11/29 09:15:41;;;;;;;18.40;15.00;;;;;;;0.69;100.00;97088.14;102317;1310;62209;-71
2021/11/29 09:18:09;;;;;;;20.10;15.80;;;;;;;0.69;100.00;97084.30;102391;1310;76001;-72
2021/11/29 09:20:36;;;;;;;22.70;15.00;;;;;;;0.71;100.00;97086.27;102388;1310;70489;-71
2021/11/29 09:23:03;;;;;;;21.60;15.10;;;;;;;0.73;100.00;97085.65;102313;1310;73727;-71
2021/11/29 09:25:30;;;;;;;18.60;15.20;;;;;;;0.73;100.00;97081.09;102312;1311;62093;-72
2021/11/29 09:27:57;;;;;;;15.70;13.00;;;;;;;0.79;100.00;97082.84;102365;1311;62232;-71
2021/11/29 09:30:23;;;;;;;18.30;14.40;;;;;;;0.81;100.00;97083.75;102032;1317;77358;-74
2021/11/29 09:32:50;;;;;;;19.70;14.60;;;;;;;0.82;100.00;97088.63;102356;1310;69416;-71
2021/11/29 09:35:19;;;;;;;18.10;13.60;;;;;;;0.80;100.00;97094.81;102352;1310;73949;-72
2021/11/29 09:37:47;;;;;;;19.50;14.40;;;;;;;0.78;100.00;97101.21;102387;1314;62254;-72
2021/11/29 09:40:22;;;;;;;16.80;14.80;;;;;;;0.78;100.00;97107.51;102378;1310;62221;-73
2021/11/29 09:42:49;;;;;;;20.00;14.30;;;;;;;0.78;100.00;97105.98;102501;1313;77369;-74
2021/11/29 09:45:17;;;;;;;20.20;15.20;;;;;;;0.74;100.00;97110.39;102412;1310;70560;-73
2021/11/29 09:47:44;;;;;;;18.00;14.30;;;;;;;0.71;100.00;97110.56;102430;1310;73563;-72
2021/11/29 09:50:12;;;;;;;20.40;15.70;;;;;;;0.71;100.00;97113.90;102056;1314;62142;-72
2021/11/29 09:52:38;;;;;;;21.80;16.10;;;;;;;0.67;100.00;97117.63;102415;1310;62140;-72
2021/11/29 09:55:09;;;;;;;21.50;15.90;;;;;;;0.65;100.00;97119.46;102509;1314;76394;-73
2021/11/29 09:57:39;;;;;;;20.40;14.60;;;;;;;0.65;100.00;97122.61;102494;1310;70034;-72
2021/11/29 10:00:10;;;;;;;16.90;13.30;;;;;;;0.65;100.00;97122.11;102038;1311;74550;-73
2021/11/29 10:02:37;;;;;;;16.70;12.90;;;;;;;0.64;100.00;97121.95;101866;1311;62234;-72
2021/11/29 10:05:04;;;;;;;20.30;12.80;;;;;;;0.64;100.00;97119.90;102397;1310;62116;-72
2021/11/29 10:07:37;;;;;;;18.50;14.70;;;;;;;0.60;100.00;97123.05;101922;1317;77738;-72
2021/11/29 10:10:15;;;;;;;20.30;14.10;;;;;;;0.61;100.00;97127.23;102338;1310;70283;-72
2021/11/29 10:12:43;;;;;;;19.70;15.00;;;;;;;0.60;100.00;97132.30;102413;1310;74003;-72
2021/11/29 10:15:19;;;;;;;20.70;16.40;;;;;;;0.59;100.00;97137.62;102606;1310;62227;-72
2021/11/29 10:17:50;;;;;;;26.20;16.00;;;;;;;0.57;100.00;97138.07;102674;1310;62465;-73
2021/11/29 10:20:16;;;;;;;;;;;;;;;0.58;100.00;97132.63;102523;1311;76906;-73
2021/11/29 10:23:04;;;;;;;20.50;14.30;;;;;;;0.58;100.00;97135.92;102378;1311;62222;-73
2021/11/29 10:25:31;;;;;;;22.90;15.40;;;;;;;0.60;100.00;97132.54;102465;1310;73115;-74
2021/11/29 10:27:58;;;;;;;19.80;14.10;;;;;;;0.62;100.00;97132.23;102402;1310;62141;-73
2021/11/29 10:30:29;;;;;;;19.00;14.70;;;;;;;0.63;100.00;97135.98;102068;1313;62286;-72
2021/11/29 10:32:56;;;;;;;18.20;12.90;;;;;;;0.66;100.00;97135.16;102288;1316;76326;-71
2021/11/29 10:35:33;;;;;;;18.80;12.80;;;;;;;0.65;100.00;97137.96;102322;1310;69599;-72
2021/11/29 10:38:01;;;;;;;19.80;13.00;;;;;;;0.66;100.00;97139.88;102284;1310;73576;-72
2021/11/29 10:40:28;;;;;;;17.80;12.80;;;;;;;0.67;100.00;97146.81;102314;1311;62130;-72
2021/11/29 10:43:04;;;;;;;19.50;14.10;;;;;;;0.69;100.00;97144.27;102316;1310;62072;-72
2021/11/29 10:45:31;;;;;;;20.90;15.30;;;;;;;0.70;100.00;97146.45;102365;1310;77319;-72
2021/11/29 10:47:57;;;;;;;19.80;14.90;;;;;;;0.72;100.00;97147.05;102287;1311;70265;-71
2021/11/29 10:50:26;;;;;;;19.40;15.90;;;;;;;0.74;100.00;97147.47;102343;1313;73560;-72
2021/11/29 10:53:09;;;;;;;21.10;16.00;;;;;;;0.78;100.00;97152.11;102322;1310;62113;-72
2021/11/29 10:56:00;;;;;;;23.40;17.20;;;;;;;0.81;100.00;97149.99;102320;1314;62237;-73
2021/11/29 10:58:38;;;;;;;23.20;16.10;;;;;;;0.86;100.00;97150.61;102360;1314;74424;-72
2021/11/29 11:01:05;;;;;;;20.70;15.60;;;;;;;0.86;100.00;97155.47;102324;1310;70539;-73
2021/11/29 11:03:50;;;;;;;21.50;15.30;;;;;;;0.87;100.00;97157.19;102354;1310;74547;-72
2021/11/29 11:06:25;;;;;;;20.70;16.00;;;;;;;0.87;100.00;97155.59;102010;1313;62144;-72
2021/11/29 11:08:53;;;;;;;25.80;19.20;;;;;;;0.88;100.00;97161.48;101960;1316;62118;-72
2021/11/29 11:11:35;;;;;;;29.30;21.00;;;;;;;0.87;100.00;97159.61;102377;1310;77344;-73
2021/11/29 11:14:14;;;;;;;35.30;25.40;;;;;;;0.87;100.00;97159.42;102523;1310;69683;-70